Time;durP1;ratioP1;P1;durP2;ratioP2;P2;SDS_P1;SDS_P2;PMS_P1;PMS_P2;Temp;Humidity;BMP_temperature;BMP_pressure;BME280_temperature;BME280_humidity;BME280_pressure;Samples;Min_cycle;Max_cycle;Signal;HPM_P1;HPM_P2
2022/10/22 00:01:10;;;;;;;19.30;8.52;;;12.60;99.90;;;;;;5007205;28;20025;-70
2022/10/22 00:03:35;;;;;;;21.15;11.57;;;12.60;99.90;;;;;;4992383;28;20029;-68
2022/10/22 00:06:01;;;;;;;30.60;14.45;;;12.60;99.90;;;;;;5014629;28;20034;-69
2022/10/22 00:08:26;;;;;;;25.25;11.70;;;12.60;99.90;;;;;;5012578;28;20025;-68
2022/10/22 00:10:52;;;;;;;23.60;12.20;;;12.60;99.90;;;;;;5007464;28;20546;-68
2022/10/22 00:13:18;;;;;;;22.55;11.77;;;12.70;99.90;;;;;;5010204;28;20049;-68
2022/10/22 00:15:44;;;;;;;17.42;10.95;;;12.70;99.90;;;;;;5000858;28;20057;-68
2022/10/22 00:18:09;;;;;;;17.63;10.50;;;12.70;99.90;;;;;;5007283;28;20057;-70
2022/10/22 00:20:35;;;;;;;22.90;9.68;;;12.80;99.90;;;;;;5011785;28;20525;-69
2022/10/22 00:23:01;;;;;;;17.10;8.35;;;12.80;99.90;;;;;;5001421;28;20038;-69
2022/10/22 00:25:26;;;;;;;25.05;9.15;;;12.80;99.90;;;;;;5002231;28;20025;-68
2022/10/22 00:27:52;;;;;;;14.93;7.50;;;12.80;99.90;;;;;;5004910;28;20031;-69
2022/10/22 00:30:18;;;;;;;17.48;8.07;;;12.80;99.90;;;;;;5002253;28;20394;-68
2022/10/22 00:32:43;;;;;;;15.43;8.27;;;12.90;99.90;;;;;;5012454;28;20033;-69
2022/10/22 00:35:09;;;;;;;16.58;7.97;;;12.80;99.90;;;;;;5013952;28;20030;-69
2022/10/22 00:37:34;;;;;;;18.88;8.10;;;12.80;99.90;;;;;;5006285;28;20026;-69
2022/10/22 00:40:00;;;;;;;15.23;8.52;;;12.80;99.90;;;;;;5008465;28;20030;-68
2022/10/22 00:42:29;;;;;;;20.10;7.97;;;12.70;99.90;;;;;;5011335;28;20026;-69
2022/10/22 00:45:09;;;;;;;16.98;9.07;;;12.70;99.90;;;;;;5003500;28;20417;-68
2022/10/22 00:47:45;;;;;;;15.85;7.43;;;12.70;99.90;;;;;;5003791;28;20105;-69
2022/10/22 00:50:15;;;;;;;15.10;8.35;;;12.70;99.90;;;;;;5005145;28;20603;-68
2022/10/22 00:52:41;;;;;;;14.75;8.10;;;12.70;99.90;;;;;;5011634;28;20037;-68
2022/10/22 00:55:08;;;;;;;20.67;7.97;;;12.80;99.90;;;;;;5010175;28;20037;-68
2022/10/22 00:57:34;;;;;;;14.00;7.90;;;12.80;99.90;;;;;;4999203;28;20033;-68
2022/10/22 01:00:00;;;;;;;18.25;8.85;;;12.80;99.90;;;;;;5012127;28;20545;-69
2022/10/22 01:02:26;;;;;;;15.80;7.43;;;12.80;99.90;;;;;;5002673;28;20037;-68
2022/10/22 01:04:52;;;;;;;14.95;7.75;;;12.80;99.90;;;;;;5008593;28;20033;-68
2022/10/22 01:07:21;;;;;;;20.33;7.15;;;12.80;99.90;;;;;;5009075;28;20017;-68
2022/10/22 01:09:55;;;;;;;17.75;8.10;;;12.70;99.90;;;;;;5003720;28;20446;-69
2022/10/22 01:12:34;;;;;;;17.98;7.88;;;12.80;99.90;;;;;;5002852;28;20030;-67
2022/10/22 01:15:17;;;;;;;15.95;8.27;;;12.80;99.90;;;;;;4996789;28;20401;-69
2022/10/22 01:17:51;;;;;;;13.38;7.38;;;12.80;99.90;;;;;;5007431;28;20029;-68
2022/10/22 01:20:44;;;;;;;17.30;7.68;;;12.80;99.90;;;;;;5010568;28;20029;-69
2022/10/22 01:23:58;;;;;;;14.48;7.43;;;12.80;99.90;;;;;;5011357;28;20572;-69
2022/10/22 01:26:54;;;;;;;11.45;7.30;;;12.80;99.90;;;;;;4996952;28;20461;-69
2022/10/22 01:29:42;;;;;;;15.27;7.13;;;12.70;99.90;;;;;;5003561;28;20034;-67
2022/10/22 01:32:15;;;;;;;16.33;7.80;;;12.70;99.90;;;;;;4992440;28;20489;-69
2022/10/22 01:34:45;;;;;;;11.60;7.30;;;12.70;99.90;;;;;;5008489;28;20023;-68
2022/10/22 01:37:14;;;;;;;22.20;7.55;;;12.60;99.90;;;;;;5007698;28;20018;-68
2022/10/22 01:39:42;;;;;;;19.95;7.95;;;12.60;99.90;;;;;;5001892;28;20037;-68
2022/10/22 01:42:10;;;;;;;16.02;8.65;;;12.70;99.90;;;;;;5008991;28;20100;-68
2022/10/22 01:44:36;;;;;;;13.10;7.65;;;12.80;99.90;;;;;;5002240;28;20380;-69
2022/10/22 01:47:14;;;;;;;15.15;8.32;;;12.80;99.90;;;;;;5002308;28;20033;-69
2022/10/22 01:50:15;;;;;;;14.07;7.97;;;12.80;99.90;;;;;;5004698;28;20037;-69
2022/10/22 01:52:59;;;;;;;20.05;9.30;;;12.80;99.90;;;;;;4999909;28;20038;-68
2022/10/22 01:55:31;;;;;;;14.77;8.23;;;12.80;99.90;;;;;;4984837;28;20630;-68
2022/10/22 01:58:26;;;;;;;13.77;7.95;;;12.70;99.90;;;;;;4999259;28;20064;-68
2022/10/22 02:01:04;;;;;;;12.35;7.10;;;12.70;99.90;;;;;;5000225;28;20109;-69
2022/10/22 02:03:40;;;;;;;19.90;8.07;;;12.70;99.90;;;;;;5004322;28;20390;-69
2022/10/22 02:06:13;;;;;;;13.35;7.32;;;12.70;99.90;;;;;;5012531;28;20026;-69
2022/10/22 02:08:39;;;;;;;19.88;7.88;;;12.70;99.90;;;;;;5009321;28;20367;-69
2022/10/22 02:11:05;;;;;;;17.13;7.72;;;12.60;99.90;;;;;;5003436;28;20049;-68
2022/10/22 02:13:39;;;;;;;13.90;7.43;;;12.60;99.90;;;;;;5001618;28;20053;-68
2022/10/22 02:16:08;;;;;;;15.32;7.72;;;12.60;99.90;;;;;;5003197;28;20030;-69
2022/10/22 02:18:37;;;;;;;17.45;8.05;;;12.60;99.90;;;;;;5006254;28;20026;-69
2022/10/22 02:21:04;;;;;;;17.48;8.10;;;12.70;99.90;;;;;;5000661;28;20034;-68
2022/10/22 02:23:30;;;;;;;15.75;7.88;;;12.70;99.90;;;;;;4983588;28;20409;-69
2022/10/22 02:26:10;;;;;;;17.83;8.18;;;12.70;99.90;;;;;;5000429;28;20027;-69
2022/10/22 02:28:48;;;;;;;18.10;7.80;;;12.70;99.90;;;;;;5006308;28;20022;-67
2022/10/22 02:31:20;;;;;;;19.13;7.88;;;12.70;99.90;;;;;;5002950;28;20038;-69
2022/10/22 02:33:49;;;;;;;18.98;7.43;;;12.60;99.90;;;;;;5006869;28;20104;-69
2022/10/22 02:36:16;;;;;;;12.85;7.88;;;12.60;99.90;;;;;;5009300;28;20022;-68
2022/10/22 02:38:43;;;;;;;14.85;7.50;;;12.60;99.90;;;;;;5003027;28;20034;-69
2022/10/22 02:41:09;;;;;;;20.90;8.43;;;12.60;99.90;;;;;;5002540;28;20030;-68
2022/10/22 02:43:40;;;;;;;12.35;7.72;;;12.60;99.90;;;;;;4990036;28;20126;-69
2022/10/22 02:46:06;;;;;;;15.90;7.93;;;12.50;99.90;;;;;;5006650;28;20030;-69
2022/10/22 02:48:32;;;;;;;12.25;7.30;;;12.50;99.90;;;;;;4999195;28;20084;-69
2022/10/22 02:50:57;;;;;;;15.70;7.57;;;12.50;99.90;;;;;;5003613;28;20724;-69
2022/10/22 02:53:23;;;;;;;24.00;7.90;;;12.40;99.90;;;;;;5006657;28;20154;-67
2022/10/22 02:55:48;;;;;;;11.80;7.78;;;12.40;99.90;;;;;;5011252;28;20037;-69
2022/10/22 02:58:14;;;;;;;21.33;7.68;;;12.40;99.90;;;;;;5010342;28;20026;-69
2022/10/22 03:00:40;;;;;;;15.93;7.78;;;12.40;99.90;;;;;;5003645;28;20032;-68
2022/10/22 03:03:05;;;;;;;19.83;8.68;;;12.30;99.90;;;;;;5010139;28;20025;-69
2022/10/22 03:05:31;;;;;;;13.70;8.00;;;12.40;99.90;;;;;;5010417;28;20116;-68
2022/10/22 03:07:56;;;;;;;15.02;8.18;;;12.40;99.90;;;;;;5003490;28;20036;-69
2022/10/22 03:10:22;;;;;;;16.45;7.43;;;12.40;99.90;;;;;;4988846;28;20064;-69
2022/10/22 03:12:47;;;;;;;15.73;8.85;;;12.40;99.90;;;;;;5003858;28;20022;-69
2022/10/22 03:15:13;;;;;;;15.65;7.47;;;12.40;99.90;;;;;;5002772;28;20047;-69
2022/10/22 03:17:38;;;;;;;15.27;7.97;;;12.30;99.90;;;;;;4995760;28;20559;-69
2022/10/22 03:20:05;;;;;;;20.08;7.97;;;12.20;99.90;;;;;;4995384;28;20026;-69
2022/10/22 03:22:32;;;;;;;20.98;9.38;;;12.20;99.90;;;;;;5008674;28;20045;-68
2022/10/22 03:25:01;;;;;;;18.60;8.55;;;12.10;99.90;;;;;;5007126;28;20029;-68
2022/10/22 03:27:28;;;;;;;15.32;8.32;;;12.10;99.90;;;;;;5004319;28;20040;-69
2022/10/22 03:29:55;;;;;;;14.93;8.13;;;12.10;99.90;;;;;;5005187;28;20032;-69
2022/10/22 03:32:21;;;;;;;18.67;8.40;;;12.20;99.90;;;;;;5009370;28;20547;-68
2022/10/22 03:34:46;;;;;;;17.77;9.70;;;12.10;99.90;;;;;;5003244;28;20058;-68
2022/10/22 03:37:12;;;;;;;19.02;8.55;;;12.20;99.90;;;;;;5003275;28;20029;-69
2022/10/22 03:39:38;;;;;;;17.00;9.02;;;12.20;99.90;;;;;;4988243;28;20058;-69
2022/10/22 03:42:05;;;;;;;28.35;10.38;;;12.10;99.90;;;;;;4999933;28;20035;-69
2022/10/22 03:44:31;;;;;;;17.88;9.35;;;12.10;99.90;;;;;;5000775;28;20103;-69
2022/10/22 03:46:56;;;;;;;23.33;10.30;;;12.10;99.90;;;;;;4981219;28;20526;-70
2022/10/22 03:49:22;;;;;;;21.58;10.40;;;12.00;99.90;;;;;;5001852;28;20126;-69
2022/10/22 03:51:48;;;;;;;20.52;10.20;;;12.10;99.90;;;;;;4987455;28;20026;-69
2022/10/22 03:54:15;;;;;;;20.42;10.23;;;12.00;99.90;;;;;;4989291;28;20521;-68
2022/10/22 03:56:40;;;;;;;23.17;10.18;;;12.10;99.90;;;;;;4990042;28;20038;-68
2022/10/22 03:59:06;;;;;;;18.50;10.77;;;12.10;99.90;;;;;;4985600;28;20026;-69
2022/10/22 04:01:32;;;;;;;23.40;9.75;;;12.10;99.90;;;;;;4990014;28;20529;-70
2022/10/22 04:03:58;;;;;;;21.98;9.77;;;12.00;99.90;;;;;;4981867;28;20382;-69
2022/10/22 04:06:24;;;;;;;22.83;9.50;;;12.00;99.90;;;;;;4991125;28;20081;-68
2022/10/22 04:08:50;;;;;;;19.83;9.85;;;12.00;99.90;;;;;;4980648;28;20547;-70
2022/10/22 04:11:16;;;;;;;23.70;9.02;;;11.90;99.90;;;;;;4989755;28;20053;-68
2022/10/22 04:13:43;;;;;;;27.25;11.57;;;11.90;99.90;;;;;;5006519;28;20030;-70
2022/10/22 04:16:18;;;;;;;29.45;10.95;;;12.00;99.90;;;;;;4989350;28;20386;-68
2022/10/22 04:18:46;;;;;;;32.83;11.98;;;12.00;99.90;;;;;;4997155;28;20057;-69
2022/10/22 04:21:13;;;;;;;27.67;11.00;;;12.00;99.90;;;;;;5005085;28;20535;-69
2022/10/22 04:23:47;;;;;;;22.63;10.80;;;12.00;99.90;;;;;;4998525;28;20033;-69
2022/10/22 04:26:13;;;;;;;31.10;10.88;;;12.00;99.90;;;;;;4989472;28;20556;-68
2022/10/22 04:28:39;;;;;;;25.25;9.98;;;12.00;99.90;;;;;;5002050;28;20042;-66
2022/10/22 04:31:18;;;;;;;23.55;11.18;;;12.00;99.90;;;;;;4999333;28;20022;-70
2022/10/22 04:33:43;;;;;;;33.58;11.05;;;11.90;99.90;;;;;;4985759;28;20030;-70
2022/10/22 04:36:17;;;;;;;22.70;10.18;;;11.90;99.90;;;;;;4998089;28;20029;-71
2022/10/22 04:38:45;;;;;;;24.85;10.95;;;11.90;99.90;;;;;;5007794;28;20805;-71
2022/10/22 04:41:23;;;;;;;28.67;10.73;;;11.90;99.90;;;;;;5001871;28;20162;-70
2022/10/22 04:43:49;;;;;;;41.05;11.98;;;11.90;99.90;;;;;;5010060;28;20028;-70
2022/10/22 04:46:16;;;;;;;27.58;13.00;;;11.80;99.90;;;;;;5008707;28;20026;-69
2022/10/22 04:48:43;;;;;;;29.67;12.65;;;11.90;99.90;;;;;;5009216;28;20033;-70
2022/10/22 04:51:12;;;;;;;25.50;12.38;;;11.90;99.90;;;;;;5003475;28;20505;-70
2022/10/22 04:53:39;;;;;;;29.10;11.57;;;11.90;99.90;;;;;;5008495;28;20030;-70
2022/10/22 04:56:18;;;;;;;31.92;11.18;;;11.90;99.90;;;;;;5008268;28;20514;-69
2022/10/22 04:58:44;;;;;;;33.75;12.43;;;11.80;99.90;;;;;;5008457;28;20047;-71
2022/10/22 05:01:16;;;;;;;26.02;10.77;;;11.90;99.90;;;;;;5002924;28;20042;-70
2022/10/22 05:03:42;;;;;;;25.35;10.77;;;11.80;99.90;;;;;;5009290;28;20030;-69
2022/10/22 05:06:08;;;;;;;22.55;10.07;;;11.70;99.90;;;;;;5007283;28;20022;-71
2022/10/22 05:08:34;;;;;;;28.52;11.43;;;11.60;99.90;;;;;;5004975;28;20024;-70
2022/10/22 05:11:00;;;;;;;26.08;10.95;;;11.60;99.90;;;;;;5009079;28;20105;-69
2022/10/22 05:13:25;;;;;;;30.45;11.20;;;11.60;99.90;;;;;;4998814;28;20030;-69
2022/10/22 05:15:51;;;;;;;30.05;11.68;;;11.60;99.90;;;;;;5012787;28;20030;-71
2022/10/22 05:18:17;;;;;;;29.73;11.85;;;11.50;99.90;;;;;;5009793;28;20046;-69
2022/10/22 05:20:42;;;;;;;25.77;11.00;;;11.50;99.90;;;;;;5001139;28;20068;-69
2022/10/22 05:23:08;;;;;;;28.83;11.13;;;11.50;99.90;;;;;;5008280;28;20045;-69
2022/10/22 05:25:38;;;;;;;30.00;12.38;;;11.50;99.90;;;;;;5009048;28;20057;-70
2022/10/22 05:28:04;;;;;;;35.63;11.60;;;11.50;99.90;;;;;;5006084;28;20026;-68
2022/10/22 05:30:29;;;;;;;38.28;12.70;;;11.50;99.90;;;;;;5004074;28;20029;-66
2022/10/22 05:32:55;;;;;;;34.83;11.80;;;11.50;99.90;;;;;;5000336;28;20053;-68
2022/10/22 05:35:20;;;;;;;32.58;12.23;;;11.40;99.90;;;;;;5012809;28;20397;-68
2022/10/22 05:37:46;;;;;;;39.80;13.68;;;11.40;99.90;;;;;;5002831;28;20061;-69
2022/10/22 05:40:12;;;;;;;49.38;18.30;;;11.40;99.90;;;;;;5009383;28;20034;-69
2022/10/22 05:42:37;;;;;;;45.45;17.38;;;11.50;99.90;;;;;;5007461;28;20105;-68
2022/10/22 05:45:03;;;;;;;38.30;14.50;;;11.60;99.90;;;;;;5010351;28;20033;-69
2022/10/22 05:47:30;;;;;;;37.97;14.20;;;11.50;99.90;;;;;;5005346;28;20442;-68
2022/10/22 05:49:58;;;;;;;32.28;13.43;;;11.60;99.90;;;;;;5003457;28;20060;-68
2022/10/22 05:52:24;;;;;;;36.50;13.38;;;11.60;99.90;;;;;;4994184;28;20029;-69
2022/10/22 05:54:49;;;;;;;37.53;13.05;;;11.60;99.90;;;;;;5009907;28;20467;-67
2022/10/22 05:57:15;;;;;;;29.38;12.27;;;11.50;99.90;;;;;;5008051;28;20042;-67
2022/10/22 05:59:40;;;;;;;25.48;12.13;;;11.40;99.90;;;;;;5010191;28;20033;-67
2022/10/22 06:02:08;;;;;;;32.03;13.60;;;11.40;99.90;;;;;;5005728;28;20036;-68
2022/10/22 06:04:34;;;;;;;28.77;11.35;;;11.40;99.90;;;;;;5001976;28;20099;-70
2022/10/22 06:07:00;;;;;;;32.50;12.00;;;11.30;99.90;;;;;;4998470;28;20054;-68
2022/10/22 06:09:27;;;;;;;58.95;11.65;;;11.30;99.90;;;;;;5006463;28;20525;-67
2022/10/22 06:11:54;;;;;;;26.33;10.90;;;11.20;99.90;;;;;;5004990;28;20099;-68
2022/10/22 06:14:20;;;;;;;25.75;10.27;;;11.20;99.90;;;;;;5010303;28;20033;-68
2022/10/22 06:16:46;;;;;;;31.02;11.48;;;11.20;99.90;;;;;;5011165;28;20101;-68
2022/10/22 06:19:14;;;;;;;27.35;11.85;;;11.20;99.90;;;;;;5005028;28;20101;-69
2022/10/22 06:21:40;;;;;;;23.60;11.00;;;11.20;99.90;;;;;;4996137;28;20046;-69
2022/10/22 06:24:06;;;;;;;23.70;10.82;;;11.30;99.90;;;;;;5004549;28;20033;-68
2022/10/22 06:26:32;;;;;;;22.17;10.80;;;11.30;99.90;;;;;;5004853;28;20038;-69
2022/10/22 06:28:58;;;;;;;35.38;12.75;;;11.30;99.90;;;;;;4996136;28;20080;-69
2022/10/22 06:31:25;;;;;;;30.58;12.75;;;11.40;99.90;;;;;;5006445;28;20033;-69
2022/10/22 06:33:51;;;;;;;28.95;12.23;;;11.60;99.90;;;;;;4996405;28;20034;-68
2022/10/22 06:36:20;;;;;;;26.08;11.30;;;11.70;99.90;;;;;;5006036;28;20049;-69
2022/10/22 06:38:46;;;;;;;35.30;11.90;;;11.80;99.90;;;;;;5001296;28;20061;-69
2022/10/22 06:41:14;;;;;;;30.25;11.90;;;11.90;99.90;;;;;;5003341;28;20445;-69
2022/10/22 06:43:44;;;;;;;30.33;10.95;;;12.10;99.90;;;;;;5003487;28;20041;-67
2022/10/22 06:46:10;;;;;;;40.30;12.18;;;12.20;99.90;;;;;;5009787;28;20030;-68
2022/10/22 06:48:39;;;;;;;29.33;12.52;;;12.30;99.90;;;;;;5006692;28;20053;-68
2022/10/22 06:51:10;;;;;;;30.25;11.13;;;12.40;99.90;;;;;;4988029;28;20033;-68
2022/10/22 06:53:37;;;;;;;24.13;10.82;;;12.60;99.90;;;;;;5006825;28;20418;-67
2022/10/22 06:56:12;;;;;;;26.42;11.13;;;12.70;99.90;;;;;;4991478;28;20062;-69
2022/10/22 06:58:37;;;;;;;25.55;10.05;;;12.80;99.90;;;;;;4999744;28;20030;-69
2022/10/22 07:01:12;;;;;;;24.58;10.40;;;12.90;99.90;;;;;;4986682;28;20056;-69
2022/10/22 07:03:38;;;;;;;32.00;10.00;;;13.00;99.90;;;;;;5003398;28;20489;-69
2022/10/22 07:06:09;;;;;;;28.65;11.35;;;13.10;99.90;;;;;;5009800;28;20030;-68
2022/10/22 07:08:35;;;;;;;25.13;9.48;;;13.20;99.90;;;;;;5005383;28;20072;-68
2022/10/22 07:11:28;;;;;;;18.58;8.93;;;13.30;99.90;;;;;;5002236;28;20057;-69
2022/10/22 07:13:56;;;;;;;18.63;8.00;;;13.40;99.90;;;;;;5002438;28;20057;-69
2022/10/22 07:16:21;;;;;;;20.23;9.43;;;13.50;99.90;;;;;;5007243;28;20080;-68
2022/10/22 07:18:47;;;;;;;17.60;8.85;;;13.50;99.90;;;;;;4997520;28;20034;-69
2022/10/22 07:21:16;;;;;;;16.27;8.52;;;13.60;99.90;;;;;;5004507;28;20033;-68
2022/10/22 07:23:43;;;;;;;17.13;8.73;;;13.60;99.90;;;;;;4999874;28;20449;-70
2022/10/22 07:26:12;;;;;;;16.40;7.35;;;13.60;99.90;;;;;;5004680;28;20026;-70
2022/10/22 07:28:39;;;;;;;21.45;8.13;;;13.50;99.90;;;;;;5004374;28;20037;-68
2022/10/22 07:31:07;;;;;;;17.38;7.85;;;13.40;99.90;;;;;;5007973;28;20022;-69
2022/10/22 07:33:33;;;;;;;19.30;7.85;;;13.20;99.90;;;;;;4999454;28;20026;-69
2022/10/22 07:36:00;;;;;;;14.60;7.18;;;13.20;99.90;;;;;;4995510;28;20160;-68
2022/10/22 07:38:26;;;;;;;19.10;7.85;;;13.20;99.90;;;;;;5003750;28;20054;-69
2022/10/22 07:40:52;;;;;;;18.75;8.02;;;13.20;99.90;;;;;;4999708;28;20053;-69
2022/10/22 07:43:17;;;;;;;17.08;7.93;;;13.20;99.90;;;;;;5005909;28;20117;-69
2022/10/22 07:45:43;;;;;;;18.23;8.35;;;13.20;99.90;;;;;;4999095;28;20041;-70
2022/10/22 07:48:09;;;;;;;12.68;7.93;;;13.20;99.90;;;;;;5004438;28;20129;-69
2022/10/22 07:50:35;;;;;;;19.02;8.82;;;13.20;99.90;;;;;;5001180;28;20081;-68
2022/10/22 07:53:00;;;;;;;20.42;8.50;;;13.20;99.90;;;;;;5003123;28;20034;-69
2022/10/22 07:55:26;;;;;;;16.00;7.95;;;13.20;99.90;;;;;;4985490;28;20501;-68
2022/10/22 07:57:52;;;;;;;13.32;7.88;;;13.20;99.90;;;;;;4998842;28;20104;-68
2022/10/22 08:00:18;;;;;;;19.27;7.07;;;13.10;99.90;;;;;;4985754;28;20088;-68
2022/10/22 08:02:43;;;;;;;18.60;7.75;;;13.10;99.90;;;;;;4998047;28;20034;-69
2022/10/22 08:05:09;;;;;;;13.63;7.53;;;13.10;99.90;;;;;;5001221;28;20049;-68
2022/10/22 08:07:35;;;;;;;17.65;8.13;;;13.10;99.90;;;;;;4995544;28;20029;-68
2022/10/22 08:10:00;;;;;;;16.13;6.82;;;13.20;99.90;;;;;;4997297;28;20116;-70
2022/10/22 08:12:26;;;;;;;19.75;6.55;;;13.30;99.90;;;;;;5002131;28;20042;-70
2022/10/22 08:14:52;;;;;;;20.42;8.07;;;13.40;99.90;;;;;;5000526;28;20058;-70
2022/10/22 08:17:17;;;;;;;18.67;6.72;;;13.40;99.90;;;;;;5000927;28;20493;-69
2022/10/22 08:19:43;;;;;;;17.73;6.55;;;13.40;99.90;;;;;;5004853;28;20095;-70
2022/10/22 08:22:08;;;;;;;12.10;5.40;;;13.50;99.90;;;;;;5005783;28;20103;-70
2022/10/22 08:24:34;;;;;;;15.05;5.57;;;13.50;99.90;;;;;;5009943;28;20065;-71
2022/10/22 08:26:59;;;;;;;8.77;4.88;;;13.60;99.90;;;;;;5001932;28;20026;-69
2022/10/22 08:29:25;;;;;;;13.00;4.88;;;13.60;99.90;;;;;;5003807;28;20014;-69
2022/10/22 08:31:52;;;;;;;11.15;5.20;;;13.80;99.90;;;;;;4985875;28;20038;-69
2022/10/22 08:34:18;;;;;;;7.85;3.90;;;13.90;99.90;;;;;;5009764;28;20497;-70
2022/10/22 08:36:45;;;;;;;15.10;4.72;;;14.10;99.90;;;;;;5006485;28;20097;-69
2022/10/22 08:39:11;;;;;;;11.63;3.47;;;14.40;99.90;;;;;;5006681;28;20549;-70
2022/10/22 08:41:59;;;;;;;7.30;3.13;;;14.70;99.90;;;;;;5001191;28;20110;-70
2022/10/22 08:44:58;;;;;;;4.20;2.40;;;14.80;99.90;;;;;;4980537;28;20508;-70
2022/10/22 08:47:32;;;;;;;7.63;2.47;;;15.10;99.90;;;;;;5002022;28;20492;-69
2022/10/22 08:49:59;;;;;;;8.55;2.83;;;15.30;99.90;;;;;;5013254;28;20101;-70
2022/10/22 08:52:25;;;;;;;4.43;2.55;;;15.40;99.90;;;;;;5004305;28;20102;-69
2022/10/22 08:54:58;;;;;;;7.28;2.42;;;15.30;99.90;;;;;;5008352;28;20449;-70
2022/10/22 08:57:41;;;;;;;10.20;2.63;;;15.20;99.90;;;;;;5005893;28;20030;-69
2022/10/22 09:00:12;;;;;;;7.00;2.55;;;15.10;99.90;;;;;;5005484;28;20030;-69
2022/10/22 09:03:08;;;;;;;5.07;2.30;;;15.00;99.90;;;;;;4989831;28;20045;-70
2022/10/22 09:05:42;;;;;;;4.20;2.22;;;15.00;99.90;;;;;;5012288;28;20036;-70
2022/10/22 09:08:14;;;;;;;6.18;2.17;;;15.00;99.90;;;;;;4993843;28;20048;-70
2022/10/22 09:10:47;;;;;;;10.43;2.65;;;14.90;99.90;;;;;;4997027;28;20497;-69
2022/10/22 09:13:17;;;;;;;4.57;1.92;;;14.90;99.90;;;;;;5005265;28;20021;-70
2022/10/22 09:15:55;;;;;;;5.95;2.47;;;14.80;99.90;;;;;;4993534;28;20117;-69
2022/10/22 09:18:32;;;;;;;3.25;2.05;;;14.80;99.90;;;;;;4993323;28;20042;-69
2022/10/22 09:21:10;;;;;;;5.40;1.95;;;14.80;99.90;;;;;;4996622;28;20474;-68
2022/10/22 09:23:47;;;;;;;8.63;3.00;;;14.70;99.90;;;;;;5008198;28;20038;-69
2022/10/22 09:26:15;;;;;;;4.10;2.20;;;14.70;99.90;;;;;;5004808;28;20680;-68
2022/10/22 09:28:41;;;;;;;6.10;2.72;;;14.70;99.90;;;;;;5012386;28;20088;-68
2022/10/22 09:31:13;;;;;;;3.80;2.03;;;14.80;99.90;;;;;;5006457;28;20417;-69
2022/10/22 09:33:41;;;;;;;4.83;2.10;;;14.80;99.90;;;;;;5008526;28;20113;-68
2022/10/22 09:36:07;;;;;;;8.45;2.25;;;14.90;99.90;;;;;;5005143;28;20117;-67
2022/10/22 09:38:39;;;;;;;7.00;2.15;;;14.90;99.90;;;;;;5004575;28;20557;-67
2022/10/22 09:41:05;;;;;;;13.25;3.22;;;14.90;99.90;;;;;;5003550;28;20030;-67
2022/10/22 09:43:31;;;;;;;9.52;1.55;;;15.00;99.90;;;;;;4990631;28;20029;-70
2022/10/22 09:46:00;;;;;;;3.30;2.10;;;15.00;99.90;;;;;;5007509;28;20117;-68
2022/10/22 09:48:39;;;;;;;5.35;1.98;;;15.10;99.90;;;;;;5001725;28;20020;-68
2022/10/22 09:51:19;;;;;;;12.18;3.95;;;15.20;99.90;;;;;;4986951;28;20029;-68
2022/10/22 09:53:54;;;;;;;13.50;7.85;;;15.30;99.90;;;;;;5006001;28;20018;-67
2022/10/22 09:56:25;;;;;;;12.50;5.35;;;15.40;99.90;;;;;;5009731;28;20038;-67
2022/10/22 09:58:51;;;;;;;6.53;3.25;;;15.60;99.90;;;;;;5007384;28;20421;-67
2022/10/22 10:01:21;;;;;;;11.20;5.57;;;15.70;99.90;;;;;;4985827;28;20046;-68
2022/10/22 10:03:48;;;;;;;17.75;7.18;;;15.80;99.90;;;;;;5004752;28;20038;-68
2022/10/22 10:06:18;;;;;;;41.20;16.23;;;15.90;99.90;;;;;;5003813;28;20048;-67
2022/10/22 10:08:44;;;;;;;10.70;4.90;;;16.00;99.90;;;;;;4999602;28;20026;-68
2022/10/22 10:11:21;;;;;;;10.32;4.75;;;16.10;99.90;;;;;;5011376;28;20113;-68
2022/10/22 10:13:53;;;;;;;11.02;4.20;;;16.30;99.90;;;;;;5004826;28;20022;-68
2022/10/22 10:16:53;;;;;;;7.43;2.45;;;16.30;99.90;;;;;;4977816;28;20453;-68
2022/10/22 10:19:34;;;;;;;5.57;2.03;;;16.40;99.90;;;;;;4980921;28;20084;-67
2022/10/22 10:22:36;;;;;;;12.90;6.25;;;16.40;99.90;;;;;;5004044;28;20034;-68
2022/10/22 10:25:27;;;;;;;8.75;5.35;;;16.40;99.90;;;;;;4993431;28;20474;-68
2022/10/22 10:28:20;;;;;;;24.90;12.23;;;16.70;99.90;;;;;;5000191;28;20400;-68
2022/10/22 10:31:26;;;;;;;17.40;9.48;;;16.80;99.90;;;;;;5011373;28;20026;-68
2022/10/22 10:34:00;;;;;;;7.80;2.47;;;16.70;99.90;;;;;;4968570;28;20061;-68
2022/10/22 10:36:56;;;;;;;9.32;1.85;;;16.80;99.90;;;;;;5004810;28;20033;-67
2022/10/22 10:39:39;;;;;;;9.65;1.88;;;16.90;99.90;;;;;;5004553;28;20050;-67
2022/10/22 10:42:30;;;;;;;11.25;1.38;;;17.10;99.90;;;;;;4999406;28;20536;-68
2022/10/22 10:45:16;;;;;;;7.78;1.95;;;17.30;99.90;;;;;;5010832;28;20125;-67
2022/10/22 10:47:53;;;;;;;6.43;2.03;;;17.40;99.90;;;;;;5001524;28;20105;-67
2022/10/22 10:50:42;;;;;;;8.45;2.00;;;17.50;99.90;;;;;;5000699;28;20022;-68
2022/10/22 10:53:25;;;;;;;24.58;11.65;;;17.70;99.90;;;;;;4994407;28;20109;-67
2022/10/22 10:55:58;;;;;;;30.13;14.27;;;17.60;99.90;;;;;;5011071;28;20443;-68
2022/10/22 10:58:36;;;;;;;6.55;2.80;;;17.50;99.90;;;;;;5003935;28;20032;-68
2022/10/22 11:01:14;;;;;;;50.50;21.88;;;17.60;99.90;;;;;;4981788;28;20033;-68
2022/10/22 11:04:01;;;;;;;115.03;49.45;;;17.60;99.90;;;;;;5005706;28;20084;-68
2022/10/22 11:06:30;;;;;;;109.68;44.38;;;17.70;99.90;;;;;;4999470;28;20037;-67
2022/10/22 11:09:17;;;;;;;65.05;28.95;;;17.80;99.90;;;;;;5002965;28;20061;-68
2022/10/22 11:11:48;;;;;;;18.55;7.30;;;17.80;99.90;;;;;;4996518;28;20694;-68
2022/10/22 11:14:20;;;;;;;11.82;4.20;;;17.80;99.90;;;;;;5002601;28;20068;-68
2022/10/22 11:17:12;;;;;;;10.73;2.88;;;17.80;99.90;;;;;;4998851;28;20042;-67
2022/10/22 11:19:44;;;;;;;10.77;2.40;;;17.80;99.90;;;;;;5001679;28;20018;-68
2022/10/22 11:22:16;;;;;;;5.43;1.25;;;17.70;99.90;;;;;;5002549;28;20733;-67
2022/10/22 11:25:11;;;;;;;4.45;1.20;;;17.70;99.90;;;;;;5008336;28;20034;-68
2022/10/22 11:28:00;;;;;;;4.18;1.05;;;17.80;99.90;;;;;;4987274;28;20026;-68
2022/10/22 11:30:31;;;;;;;4.40;1.35;;;17.80;99.90;;;;;;5007112;28;20014;-68
2022/10/22 11:33:00;;;;;;;2.90;0.80;;;17.90;99.90;;;;;;4998859;28;20102;-68
2022/10/22 11:35:33;;;;;;;13.30;4.25;;;17.90;99.90;;;;;;4996547;28;20042;-66
2022/10/22 11:38:00;;;;;;;4.30;1.97;;;18.10;99.90;;;;;;5004030;28;20064;-66
2022/10/22 11:40:28;;;;;;;6.28;2.42;;;18.00;99.90;;;;;;5005467;28;20034;-67
2022/10/22 11:43:03;;;;;;;7.28;1.75;;;17.80;99.90;;;;;;5003485;28;20033;-65
2022/10/22 11:45:35;;;;;;;12.27;2.42;;;17.70;99.90;;;;;;4999848;28;20108;-67
2022/10/22 11:48:17;;;;;;;8.38;1.60;;;17.70;99.90;;;;;;4998248;28;20030;-66
2022/10/22 11:50:58;;;;;;;7.60;1.20;;;17.60;99.90;;;;;;5001738;28;20532;-66
2022/10/22 11:53:24;;;;;;;6.82;2.00;;;17.70;99.90;;;;;;5004686;28;20022;-67
2022/10/22 11:56:01;;;;;;;5.88;1.67;;;17.80;99.90;;;;;;5003228;28;20038;-66
2022/10/22 11:58:27;;;;;;;3.85;1.33;;;17.90;99.90;;;;;;5001963;28;20079;-67
2022/10/22 12:01:08;;;;;;;4.47;1.20;;;17.90;99.90;;;;;;5006185;28;20034;-66
2022/10/22 12:03:34;;;;;;;6.85;1.10;;;17.80;99.90;;;;;;4998802;28;20061;-66
2022/10/22 12:06:11;;;;;;;2.15;1.00;;;17.80;99.90;;;;;;5000729;28;20482;-66
2022/10/22 12:08:49;;;;;;;3.63;0.98;;;17.70;99.90;;;;;;5008662;28;20021;-67
2022/10/22 12:11:35;;;;;;;4.65;1.13;;;17.60;99.90;;;;;;5001297;28;20112;-66
2022/10/22 12:14:25;;;;;;;3.97;0.90;;;17.60;99.90;;;;;;4993849;28;20053;-66
2022/10/22 12:16:56;;;;;;;6.72;1.65;;;17.70;99.90;;;;;;4995256;28;20025;-66
2022/10/22 12:19:22;;;;;;;7.57;1.17;;;17.80;99.90;;;;;;5001547;28;20022;-66
2022/10/22 12:21:54;;;;;;;4.38;1.30;;;17.90;99.90;;;;;;4986272;28;20104;-66
2022/10/22 12:24:22;;;;;;;4.35;0.85;;;17.90;99.90;;;;;;4982735;28;20033;-66
2022/10/22 12:26:51;;;;;;;7.40;2.08;;;18.00;99.90;;;;;;4987625;28;20037;-66
2022/10/22 12:29:18;;;;;;;8.95;3.03;;;17.90;99.90;;;;;;4988119;28;20037;-66
2022/10/22 12:31:45;;;;;;;6.93;2.88;;;18.00;99.90;;;;;;4982347;28;20034;-67
2022/10/22 12:34:17;;;;;;;4.50;1.30;;;18.10;99.90;;;;;;4997976;28;20037;-66
2022/10/22 12:36:45;;;;;;;4.28;1.02;;;18.00;99.90;;;;;;5009487;28;20672;-67
2022/10/22 12:39:14;;;;;;;7.43;2.08;;;18.10;99.90;;;;;;5000986;28;20672;-67
2022/10/22 12:41:40;;;;;;;5.47;2.47;;;18.20;99.90;;;;;;5000066;28;20540;-66
2022/10/22 12:44:06;;;;;;;4.80;1.38;;;18.20;99.90;;;;;;5007010;28;20027;-66
2022/10/22 12:46:34;;;;;;;7.97;1.70;;;18.50;99.90;;;;;;5002115;28;20060;-66
2022/10/22 12:49:03;;;;;;;6.28;1.23;;;18.50;99.90;;;;;;4990441;28;20027;-66
2022/10/22 12:51:29;;;;;;;4.05;1.17;;;18.60;99.90;;;;;;5002324;28;20022;-67
2022/10/22 12:53:58;;;;;;;6.03;2.00;;;18.60;99.90;;;;;;5006003;28;20029;-67